sensor_id;sensor_type;location;lat;lon;timestamp;pressure;altitude;pressure_sealevel;temperature;humidity
43824;BME280;29470;53.550;9.926;2023-07-13T00:03:18;100864.38;;;19.96;89.14
43824;BME280;29470;53.550;9.926;2023-07-13T00:08:21;100864.78;;;19.82;89.72
43824;BME280;29470;53.550;9.926;2023-07-13T00:13:25;100858.78;;;19.86;88.72
43824;BME280;29470;53.550;9.926;2023-07-13T00:18:29;100870.22;;;19.88;88.86
43824;BME280;29470;53.550;9.926;2023-07-13T00:23:33;100869.31;;;19.61;94.32
43824;BME280;29470;53.550;9.926;2023-07-13T00:28:37;100877.88;;;19.55;94.22
43824;BME280;29470;53.550;9.926;2023-07-13T00:33:42;100871.28;;;19.68;91.42
43824;BME280;29470;53.550;9.926;2023-07-13T00:38:45;100882.53;;;19.38;95.05
43824;BME280;29470;53.550;9.926;2023-07-13T00:43:48;100880.53;;;19.56;94.23
43824;BME280;29470;53.550;9.926;2023-07-13T00:48:54;100882.84;;;19.73;92.33
43824;BME280;29470;53.550;9.926;2023-07-13T00:54:02;100885.19;;;19.90;90.84
43824;BME280;29470;53.550;9.926;2023-07-13T00:59:08;100891.22;;;19.63;93.03
43824;BME280;29470;53.550;9.926;2023-07-13T01:04:15;100877.59;;;19.73;92.10
43824;BME280;29470;53.550;9.926;2023-07-13T01:09:19;100879.16;;;19.92;89.55
43824;BME280;29470;53.550;9.926;2023-07-13T01:14:23;100879.59;;;19.80;90.14
43824;BME280;29470;53.550;9.926;2023-07-13T01:19:33;100883.13;;;19.81;90.84
43824;BME280;29470;53.550;9.926;2023-07-13T01:24:41;100881.97;;;19.72;92.12
43824;BME280;29470;53.550;9.926;2023-07-13T01:29:45;100881.16;;;19.75;90.95
43824;BME280;29470;53.550;9.926;2023-07-13T01:34:48;100884.28;;;19.63;91.57
43824;BME280;29470;53.550;9.926;2023-07-13T01:39:53;100887.81;;;19.39;93.89
43824;BME280;29470;53.550;9.926;2023-07-13T01:44:57;100886.41;;;19.49;93.86
43824;BME280;29470;53.550;9.926;2023-07-13T01:49:59;100874.81;;;19.42;93.00
43824;BME280;29470;53.550;9.926;2023-07-13T01:55:05;100883.94;;;19.54;92.21
43824;BME280;29470;53.550;9.926;2023-07-13T02:00:10;100877.31;;;19.39;92.44
43824;BME280;29470;53.550;9.926;2023-07-13T02:05:17;100887.44;;;19.28;94.28
43824;BME280;29470;53.550;9.926;2023-07-13T02:10:22;100889.00;;;19.23;94.46
43824;BME280;29470;53.550;9.926;2023-07-13T02:15:25;100893.47;;;19.26;94.72
43824;BME280;29470;53.550;9.926;2023-07-13T02:20:28;100893.41;;;19.24;92.45
43824;BME280;29470;53.550;9.926;2023-07-13T02:25:32;100898.09;;;19.09;93.36
43824;BME280;29470;53.550;9.926;2023-07-13T02:30:35;100897.31;;;19.11;92.95
43824;BME280;29470;53.550;9.926;2023-07-13T02:35:38;100886.38;;;19.23;92.50
43824;BME280;29470;53.550;9.926;2023-07-13T02:40:43;100895.81;;;18.95;92.80
43824;BME280;29470;53.550;9.926;2023-07-13T02:45:46;100897.19;;;18.85;93.44
43824;BME280;29470;53.550;9.926;2023-07-13T02:50:49;100892.66;;;19.04;93.06
43824;BME280;29470;53.550;9.926;2023-07-13T02:55:53;100884.41;;;19.18;91.44
43824;BME280;29470;53.550;9.926;2023-07-13T03:00:56;100887.44;;;19.04;91.69
43824;BME280;29470;53.550;9.926;2023-07-13T03:06:02;100891.69;;;19.01;90.42
43824;BME280;29470;53.550;9.926;2023-07-13T03:11:17;100886.84;;;18.66;92.25
43824;BME280;29470;53.550;9.926;2023-07-13T03:16:26;100873.56;;;19.07;89.68
43824;BME280;29470;53.550;9.926;2023-07-13T03:21:29;100874.31;;;19.04;88.11
43824;BME280;29470;53.550;9.926;2023-07-13T03:26:33;100869.75;;;18.98;87.49
43824;BME280;29470;53.550;9.926;2023-07-13T03:31:37;100874.75;;;18.92;88.14
43824;BME280;29470;53.550;9.926;2023-07-13T03:36:40;100876.91;;;19.03;87.95
43824;BME280;29470;53.550;9.926;2023-07-13T03:41:47;100882.19;;;18.81;88.89
43824;BME280;29470;53.550;9.926;2023-07-13T03:46:51;100873.44;;;19.04;88.34
43824;BME280;29470;53.550;9.926;2023-07-13T03:51:54;100869.41;;;19.13;85.98
43824;BME280;29470;53.550;9.926;2023-07-13T03:56:58;100876.88;;;19.27;83.84
43824;BME280;29470;53.550;9.926;2023-07-13T04:02:04;100869.53;;;19.41;79.78
43824;BME280;29470;53.550;9.926;2023-07-13T04:07:08;100875.06;;;19.24;78.77
43824;BME280;29470;53.550;9.926;2023-07-13T04:12:15;100865.44;;;19.25;77.77
43824;BME280;29470;53.550;9.926;2023-07-13T04:17:18;100861.69;;;19.42;78.23
43824;BME280;29470;53.550;9.926;2023-07-13T04:22:21;100856.69;;;19.76;76.53
43824;BME280;29470;53.550;9.926;2023-07-13T04:27:25;100857.44;;;19.72;77.49
43824;BME280;29470;53.550;9.926;2023-07-13T04:32:28;100849.56;;;19.72;76.55
43824;BME280;29470;53.550;9.926;2023-07-13T04:37:30;100858.34;;;19.72;77.03
43824;BME280;29470;53.550;9.926;2023-07-13T04:42:35;100866.91;;;19.93;76.11
43824;BME280;29470;53.550;9.926;2023-07-13T04:47:38;100868.69;;;19.94;75.90
43824;BME280;29470;53.550;9.926;2023-07-13T04:52:41;100868.41;;;20.12;75.91
43824;BME280;29470;53.550;9.926;2023-07-13T04:57:46;100873.47;;;20.06;75.62
43824;BME280;29470;53.550;9.926;2023-07-13T05:02:51;100875.94;;;20.28;74.60
43824;BME280;29470;53.550;9.926;2023-07-13T05:07:54;100886.06;;;20.45;73.65
43824;BME280;29470;53.550;9.926;2023-07-13T05:12:58;100884.72;;;20.58;73.33
43824;BME280;29470;53.550;9.926;2023-07-13T05:18:01;100875.03;;;21.48;69.14
43824;BME280;29470;53.550;9.926;2023-07-13T05:23:04;100882.25;;;21.24;70.08
43824;BME280;29470;53.550;9.926;2023-07-13T05:28:08;100892.59;;;21.17;70.77
43824;BME280;29470;53.550;9.926;2023-07-13T05:33:11;100904.97;;;21.20;71.49
43824;BME280;29470;53.550;9.926;2023-07-13T05:38:14;100905.16;;;20.68;73.75
43824;BME280;29470;53.550;9.926;2023-07-13T05:43:18;100910.06;;;20.56;74.88
43824;BME280;29470;53.550;9.926;2023-07-13T05:48:21;100899.94;;;21.29;71.71
43824;BME280;29470;53.550;9.926;2023-07-13T05:53:24;100907.81;;;20.97;71.68
43824;BME280;29470;53.550;9.926;2023-07-13T05:58:28;100912.41;;;21.37;71.72
43824;BME280;29470;53.550;9.926;2023-07-13T06:03:31;100907.25;;;21.09;72.86
43824;BME280;29470;53.550;9.926;2023-07-13T06:08:35;100920.66;;;21.17;72.11
43824;BME280;29470;53.550;9.926;2023-07-13T06:13:39;100917.22;;;21.21;72.32
43824;BME280;29470;53.550;9.926;2023-07-13T06:18:43;100921.13;;;21.36;72.10
43824;BME280;29470;53.550;9.926;2023-07-13T06:23:47;100923.50;;;21.26;70.94
43824;BME280;29470;53.550;9.926;2023-07-13T06:28:52;100923.97;;;21.74;70.52
43824;BME280;29470;53.550;9.926;2023-07-13T06:33:55;100931.72;;;21.37;71.28
43824;BME280;29470;53.550;9.926;2023-07-13T06:38:58;100931.94;;;22.12;68.06
43824;BME280;29470;53.550;9.926;2023-07-13T06:44:02;100921.16;;;22.38;68.25
43824;BME280;29470;53.550;9.926;2023-07-13T06:49:05;100920.47;;;22.45;65.91
43824;BME280;29470;53.550;9.926;2023-07-13T06:54:08;100928.75;;;22.61;65.88
43824;BME280;29470;53.550;9.926;2023-07-13T06:59:12;100917.28;;;22.59;65.83
43824;BME280;29470;53.550;9.926;2023-07-13T07:04:15;100929.41;;;22.15;66.64
43824;BME280;29470;53.550;9.926;2023-07-13T07:09:18;100925.25;;;23.46;63.73
43824;BME280;29470;53.550;9.926;2023-07-13T07:14:22;100928.44;;;23.76;61.77
43824;BME280;29470;53.550;9.926;2023-07-13T07:19:25;100926.34;;;24.64;59.46
43824;BME280;29470;53.550;9.926;2023-07-13T07:24:28;100917.28;;;25.96;52.51
43824;BME280;29470;53.550;9.926;2023-07-13T07:29:32;100920.75;;;27.31;50.06
43824;BME280;29470;53.550;9.926;2023-07-13T07:34:38;100920.53;;;26.80;50.09
43824;BME280;29470;53.550;9.926;2023-07-13T07:39:42;100932.34;;;27.52;48.35
43824;BME280;29470;53.550;9.926;2023-07-13T07:45:07;100918.03;;;29.02;44.91
43824;BME280;29470;53.550;9.926;2023-07-13T07:50:13;100919.94;;;28.61;45.17
43824;BME280;29470;53.550;9.926;2023-07-13T07:55:16;100921.75;;;28.07;46.62
43824;BME280;29470;53.550;9.926;2023-07-13T08:00:23;100910.41;;;29.91;41.74
43824;BME280;29470;53.550;9.926;2023-07-13T08:05:46;100911.88;;;33.55;36.37
43824;BME280;29470;53.550;9.926;2023-07-13T08:11:09;100907.44;;;31.03;40.13
43824;BME280;29470;53.550;9.926;2023-07-13T08:16:17;100906.47;;;29.07;43.16
43824;BME280;29470;53.550;9.926;2023-07-13T08:21:20;100912.03;;;27.91;45.87
43824;BME280;29470;53.550;9.926;2023-07-13T08:26:23;100922.44;;;29.09;43.29
43824;BME280;29470;53.550;9.926;2023-07-13T08:31:27;100919.78;;;29.06;43.70
43824;BME280;29470;53.550;9.926;2023-07-13T08:36:30;100928.38;;;26.62;49.40
43824;BME280;29470;53.550;9.926;2023-07-13T08:41:33;100935.06;;;25.23;52.40
43824;BME280;29470;53.550;9.926;2023-07-13T08:46:40;100934.69;;;25.67;51.38
43824;BME280;29470;53.550;9.926;2023-07-13T08:51:47;100927.22;;;25.32;52.53
43824;BME280;29470;53.550;9.926;2023-07-13T08:56:53;100928.78;;;25.14;53.84
43824;BME280;29470;53.550;9.926;2023-07-13T09:02:17;100934.03;;;25.93;50.81
43824;BME280;29470;53.550;9.926;2023-07-13T09:07:34;100936.63;;;25.88;50.81
43824;BME280;29470;53.550;9.926;2023-07-13T09:12:55;100933.25;;;26.03;49.48
43824;BME280;29470;53.550;9.926;2023-07-13T09:18:05;100928.81;;;26.01;49.23
43824;BME280;29470;53.550;9.926;2023-07-13T09:23:14;100924.94;;;26.79;47.04
43824;BME280;29470;53.550;9.926;2023-07-13T09:28:23;100929.56;;;27.13;46.46
43824;BME280;29470;53.550;9.926;2023-07-13T09:33:28;100925.19;;;27.38;45.10
43824;BME280;29470;53.550;9.926;2023-07-13T09:38:32;100928.47;;;26.80;46.36
43824;BME280;29470;53.550;9.926;2023-07-13T09:43:35;100931.47;;;25.18;50.27
43824;BME280;29470;53.550;9.926;2023-07-13T09:48:42;100931.91;;;26.65;47.46
43824;BME280;29470;53.550;9.926;2023-07-13T09:53:45;100929.59;;;27.22;45.79
43824;BME280;29470;53.550;9.926;2023-07-13T09:58:48;100949.00;;;27.16;45.15
43824;BME280;29470;53.550;9.926;2023-07-13T10:03:53;100955.59;;;25.44;48.51
43824;BME280;29470;53.550;9.926;2023-07-13T10:08:57;100947.25;;;25.10;49.43
43824;BME280;29470;53.550;9.926;2023-07-13T10:14:01;100940.34;;;26.09;48.08
43824;BME280;29470;53.550;9.926;2023-07-13T10:19:12;100930.97;;;26.47;46.44
43824;BME280;29470;53.550;9.926;2023-07-13T10:24:20;100943.75;;;25.93;47.27
43824;BME280;29470;53.550;9.926;2023-07-13T10:29:26;100940.06;;;25.77;46.77
43824;BME280;29470;53.550;9.926;2023-07-13T10:34:32;100924.91;;;26.73;44.87
43824;BME280;29470;53.550;9.926;2023-07-13T10:39:35;100930.75;;;26.19;45.95
43824;BME280;29470;53.550;9.926;2023-07-13T10:44:39;100925.63;;;26.44;44.00
43824;BME280;29470;53.550;9.926;2023-07-13T10:49:44;100926.56;;;26.58;43.96
43824;BME280;29470;53.550;9.926;2023-07-13T10:54:48;100930.84;;;26.31;45.57
43824;BME280;29470;53.550;9.926;2023-07-13T11:00:13;100927.94;;;26.03;43.69
43824;BME280;29470;53.550;9.926;2023-07-13T11:05:30;100932.97;;;26.84;43.47
43824;BME280;29470;53.550;9.926;2023-07-13T11:10:48;100932.25;;;27.27;43.00
43824;BME280;29470;53.550;9.926;2023-07-13T11:15:51;100940.09;;;26.99;42.25
43824;BME280;29470;53.550;9.926;2023-07-13T11:21:12;100919.97;;;27.60;40.74
43824;BME280;29470;53.550;9.926;2023-07-13T11:26:41;100926.94;;;27.36;40.78
43824;BME280;29470;53.550;9.926;2023-07-13T11:31:51;100935.91;;;27.60;41.18
43824;BME280;29470;53.550;9.926;2023-07-13T11:36:57;100919.03;;;28.68;39.53
43824;BME280;29470;53.550;9.926;2023-07-13T11:42:03;100930.19;;;26.70;41.75
43824;BME280;29470;53.550;9.926;2023-07-13T11:47:09;100936.28;;;26.53;42.61
43824;BME280;29470;53.550;9.926;2023-07-13T11:52:16;100940.69;;;26.48;42.42
43824;BME280;29470;53.550;9.926;2023-07-13T11:57:24;100959.34;;;25.58;44.44
43824;BME280;29470;53.550;9.926;2023-07-13T12:02:30;100940.94;;;25.77;44.40
43824;BME280;29470;53.550;9.926;2023-07-13T12:07:36;100937.31;;;26.77;42.69
43824;BME280;29470;53.550;9.926;2023-07-13T12:12:46;100967.41;;;25.00;46.62
43824;BME280;29470;53.550;9.926;2023-07-13T12:17:49;101043.00;;;23.39;57.92
43824;BME280;29470;53.550;9.926;2023-07-13T12:22:54;101079.84;;;21.06;80.13
43824;BME280;29470;53.550;9.926;2023-07-13T12:27:57;101094.28;;;20.39;91.10
43824;BME280;29470;53.550;9.926;2023-07-13T12:33:02;101106.91;;;19.99;91.24
43824;BME280;29470;53.550;9.926;2023-07-13T12:38:08;101091.47;;;20.85;81.98
43824;BME280;29470;53.550;9.926;2023-07-13T12:43:13;101085.28;;;21.70;79.15
43824;BME280;29470;53.550;9.926;2023-07-13T12:48:16;101100.69;;;21.57;77.97
43824;BME280;29470;53.550;9.926;2023-07-13T12:53:30;101127.56;;;21.47;81.40
43824;BME280;29470;53.550;9.926;2023-07-13T12:58:37;101121.34;;;21.43;80.47
43824;BME280;29470;53.550;9.926;2023-07-13T13:03:45;101126.03;;;21.54;79.01
43824;BME280;29470;53.550;9.926;2023-07-13T13:08:52;101129.59;;;21.27;79.12
43824;BME280;29470;53.550;9.926;2023-07-13T13:13:56;101125.22;;;21.27;78.55
43824;BME280;29470;53.550;9.926;2023-07-13T13:19:05;101127.16;;;22.55;77.92
43824;BME280;29470;53.550;9.926;2023-07-13T13:24:18;101098.84;;;23.58;68.16
43824;BME280;29470;53.550;9.926;2023-07-13T13:29:23;101113.81;;;24.02;69.71
43824;BME280;29470;53.550;9.926;2023-07-13T13:34:26;101117.97;;;23.89;69.12
43824;BME280;29470;53.550;9.926;2023-07-13T13:39:33;101115.31;;;24.83;62.64
43824;BME280;29470;53.550;9.926;2023-07-13T13:44:37;101107.41;;;24.34;60.21
43824;BME280;29470;53.550;9.926;2023-07-13T13:49:39;101122.19;;;23.81;63.13
43824;BME280;29470;53.550;9.926;2023-07-13T13:54:44;101130.97;;;23.78;63.71
43824;BME280;29470;53.550;9.926;2023-07-13T13:59:47;101109.78;;;23.77;60.02
43824;BME280;29470;53.550;9.926;2023-07-13T14:04:54;101111.66;;;24.27;57.46
43824;BME280;29470;53.550;9.926;2023-07-13T14:10:00;101101.75;;;24.15;57.76
43824;BME280;29470;53.550;9.926;2023-07-13T14:15:03;101097.22;;;23.65;58.65
43824;BME280;29470;53.550;9.926;2023-07-13T14:20:10;101105.34;;;23.74;58.54
43824;BME280;29470;53.550;9.926;2023-07-13T14:25:16;101104.88;;;23.97;55.98
43824;BME280;29470;53.550;9.926;2023-07-13T14:30:21;101110.31;;;24.49;55.43
43824;BME280;29470;53.550;9.926;2023-07-13T14:35:24;101116.38;;;24.94;53.31
43824;BME280;29470;53.550;9.926;2023-07-13T14:40:30;101101.50;;;25.03;54.50
43824;BME280;29470;53.550;9.926;2023-07-13T14:45:33;101105.03;;;24.03;57.47
43824;BME280;29470;53.550;9.926;2023-07-13T14:50:37;101115.28;;;24.31;57.81
43824;BME280;29470;53.550;9.926;2023-07-13T14:55:42;101123.16;;;23.43;63.79
43824;BME280;29470;53.550;9.926;2023-07-13T15:00:45;101116.59;;;23.65;63.51
43824;BME280;29470;53.550;9.926;2023-07-13T15:05:50;101119.97;;;24.47;61.63
43824;BME280;29470;53.550;9.926;2023-07-13T15:10:55;101124.03;;;24.77;60.03
43824;BME280;29470;53.550;9.926;2023-07-13T15:16:01;101118.09;;;24.92;58.60
43824;BME280;29470;53.550;9.926;2023-07-13T15:21:08;101107.13;;;24.70;58.88
43824;BME280;29470;53.550;9.926;2023-07-13T15:26:14;101106.88;;;24.07;56.23
43824;BME280;29470;53.550;9.926;2023-07-13T15:31:19;101110.06;;;24.86;54.17
43824;BME280;29470;53.550;9.926;2023-07-13T15:36:24;101108.50;;;24.97;53.48
43824;BME280;29470;53.550;9.926;2023-07-13T15:41:31;101113.44;;;24.77;53.99
43824;BME280;29470;53.550;9.926;2023-07-13T15:46:34;101114.53;;;23.95;57.04
43824;BME280;29470;53.550;9.926;2023-07-13T15:51:37;101113.13;;;24.59;53.15
43824;BME280;29470;53.550;9.926;2023-07-13T15:56:41;101116.25;;;24.86;53.14
43824;BME280;29470;53.550;9.926;2023-07-13T16:01:46;101112.97;;;25.03;51.27
43824;BME280;29470;53.550;9.926;2023-07-13T16:06:51;101112.06;;;24.99;50.50
43824;BME280;29470;53.550;9.926;2023-07-13T16:11:55;101126.38;;;24.12;53.08
43824;BME280;29470;53.550;9.926;2023-07-13T16:16:59;101141.59;;;23.83;52.26
43824;BME280;29470;53.550;9.926;2023-07-13T16:22:03;101141.13;;;23.60;54.59
43824;BME280;29470;53.550;9.926;2023-07-13T16:27:09;101137.16;;;23.41;54.59
43824;BME280;29470;53.550;9.926;2023-07-13T16:32:13;101152.00;;;23.00;57.26
43824;BME280;29470;53.550;9.926;2023-07-13T16:37:18;101148.44;;;22.98;60.49
43824;BME280;29470;53.550;9.926;2023-07-13T16:42:23;101135.78;;;23.20;58.86
43824;BME280;29470;53.550;9.926;2023-07-13T16:47:26;101149.16;;;22.91;58.21
43824;BME280;29470;53.550;9.926;2023-07-13T16:52:29;101147.72;;;22.69;59.80
43824;BME280;29470;53.550;9.926;2023-07-13T16:57:34;101150.34;;;22.36;60.98
43824;BME280;29470;53.550;9.926;2023-07-13T17:02:38;101144.13;;;22.65;59.62
43824;BME280;29470;53.550;9.926;2023-07-13T17:07:43;101149.34;;;23.34;57.55
43824;BME280;29470;53.550;9.926;2023-07-13T17:12:49;101148.56;;;23.39;57.93
43824;BME280;29470;53.550;9.926;2023-07-13T17:17:53;101160.91;;;23.04;58.30
43824;BME280;29470;53.550;9.926;2023-07-13T17:23:12;101170.28;;;22.91;59.85
43824;BME280;29470;53.550;9.926;2023-07-13T17:28:18;101167.66;;;22.27;61.62
43824;BME280;29470;53.550;9.926;2023-07-13T17:33:27;101164.22;;;22.61;60.28
43824;BME280;29470;53.550;9.926;2023-07-13T17:38:35;101157.47;;;22.71;58.94
43824;BME280;29470;53.550;9.926;2023-07-13T17:43:43;101169.38;;;22.57;59.68
43824;BME280;29470;53.550;9.926;2023-07-13T17:48:48;101165.13;;;22.62;59.22
43824;BME280;29470;53.550;9.926;2023-07-13T17:53:53;101168.97;;;22.43;58.99
43824;BME280;29470;53.550;9.926;2023-07-13T17:58:58;101173.13;;;22.34;59.01
43824;BME280;29470;53.550;9.926;2023-07-13T18:04:01;101170.25;;;22.56;58.53
43824;BME280;29470;53.550;9.926;2023-07-13T18:09:14;101178.81;;;22.80;57.75
43824;BME280;29470;53.550;9.926;2023-07-13T18:14:19;101184.34;;;22.27;60.34
43824;BME280;29470;53.550;9.926;2023-07-13T18:19:28;101184.00;;;22.15;61.62
43824;BME280;29470;53.550;9.926;2023-07-13T18:24:32;101185.22;;;21.96;61.60
43824;BME280;29470;53.550;9.926;2023-07-13T18:29:37;101182.59;;;21.96;63.19
43824;BME280;29470;53.550;9.926;2023-07-13T18:34:40;101180.53;;;21.85;63.81
43824;BME280;29470;53.550;9.926;2023-07-13T18:39:44;101187.53;;;22.15;66.31
43824;BME280;29470;53.550;9.926;2023-07-13T18:44:49;101198.56;;;21.73;65.89
43824;BME280;29470;53.550;9.926;2023-07-13T18:49:52;101204.28;;;22.17;66.32
43824;BME280;29470;53.550;9.926;2023-07-13T18:54:58;101213.25;;;21.93;70.28
43824;BME280;29470;53.550;9.926;2023-07-13T19:00:02;101248.63;;;21.21;77.63
43824;BME280;29470;53.550;9.926;2023-07-13T19:05:16;101237.44;;;21.27;76.50
43824;BME280;29470;53.550;9.926;2023-07-13T19:10:22;101240.34;;;20.83;79.11
43824;BME280;29470;53.550;9.926;2023-07-13T19:15:28;101259.22;;;20.72;82.98
43824;BME280;29470;53.550;9.926;2023-07-13T19:20:32;101263.25;;;20.63;83.18
43824;BME280;29470;53.550;9.926;2023-07-13T19:25:35;101258.72;;;20.34;84.42
43824;BME280;29470;53.550;9.926;2023-07-13T19:30:40;101259.50;;;20.31;83.77
43824;BME280;29470;53.550;9.926;2023-07-13T19:35:43;101264.31;;;20.43;80.34
43824;BME280;29470;53.550;9.926;2023-07-13T19:40:47;101266.16;;;20.46;79.58
43824;BME280;29470;53.550;9.926;2023-07-13T19:45:51;101259.41;;;20.28;77.80
43824;BME280;29470;53.550;9.926;2023-07-13T19:50:55;101263.81;;;20.54;78.91
43824;BME280;29470;53.550;9.926;2023-07-13T19:55:58;101281.97;;;20.23;81.21
43824;BME280;29470;53.550;9.926;2023-07-13T20:01:03;101298.31;;;20.16;83.14
43824;BME280;29470;53.550;9.926;2023-07-13T20:06:27;101308.97;;;19.98;81.38
43824;BME280;29470;53.550;9.926;2023-07-13T20:11:30;101297.72;;;20.00;79.51
43824;BME280;29470;53.550;9.926;2023-07-13T20:16:35;101316.16;;;19.60;83.46
43824;BME280;29470;53.550;9.926;2023-07-13T20:21:38;101316.44;;;19.88;81.42
43824;BME280;29470;53.550;9.926;2023-07-13T20:26:41;101316.91;;;19.78;83.98
43824;BME280;29470;53.550;9.926;2023-07-13T20:31:47;101318.91;;;19.63;83.37
43824;BME280;29470;53.550;9.926;2023-07-13T20:36:52;101330.06;;;19.57;85.14
43824;BME280;29470;53.550;9.926;2023-07-13T20:41:55;101332.16;;;19.45;86.90
43824;BME280;29470;53.550;9.926;2023-07-13T20:47:00;101330.19;;;19.60;84.52
43824;BME280;29470;53.550;9.926;2023-07-13T20:52:06;101336.00;;;19.53;86.72
43824;BME280;29470;53.550;9.926;2023-07-13T20:57:11;101345.19;;;19.22;89.75
43824;BME280;29470;53.550;9.926;2023-07-13T21:02:30;101358.94;;;19.16;90.56
43824;BME280;29470;53.550;9.926;2023-07-13T21:07:33;101376.97;;;18.90;93.87
43824;BME280;29470;53.550;9.926;2023-07-13T21:12:36;101367.78;;;18.98;91.59
43824;BME280;29470;53.550;9.926;2023-07-13T21:17:40;101375.91;;;18.87;96.10
43824;BME280;29470;53.550;9.926;2023-07-13T21:22:44;101381.59;;;18.96;94.14
43824;BME280;29470;53.550;9.926;2023-07-13T21:27:48;101388.47;;;18.94;95.19
43824;BME280;29470;53.550;9.926;2023-07-13T21:32:55;101377.34;;;18.98;94.05
43824;BME280;29470;53.550;9.926;2023-07-13T21:38:01;101384.56;;;18.84;95.89
43824;BME280;29470;53.550;9.926;2023-07-13T21:43:04;101384.50;;;19.02;93.72
43824;BME280;29470;53.550;9.926;2023-07-13T21:48:09;101384.41;;;18.81;91.46
43824;BME280;29470;53.550;9.926;2023-07-13T21:53:21;101397.00;;;18.32;97.42
43824;BME280;29470;53.550;9.926;2023-07-13T21:58:26;101393.13;;;18.62;96.26
43824;BME280;29470;53.550;9.926;2023-07-13T22:03:34;101391.44;;;18.82;96.02
43824;BME280;29470;53.550;9.926;2023-07-13T22:08:37;101389.22;;;18.72;96.11
43824;BME280;29470;53.550;9.926;2023-07-13T22:13:40;101393.13;;;18.62;96.06
43824;BME280;29470;53.550;9.926;2023-07-13T22:18:46;101391.38;;;18.43;95.43
43824;BME280;29470;53.550;9.926;2023-07-13T22:23:49;101393.94;;;18.23;99.67
43824;BME280;29470;53.550;9.926;2023-07-13T22:28:54;101391.13;;;18.56;96.15
43824;BME280;29470;53.550;9.926;2023-07-13T22:33:59;101389.84;;;18.85;94.84
43824;BME280;29470;53.550;9.926;2023-07-13T22:39:03;101391.13;;;18.56;96.21
43824;BME280;29470;53.550;9.926;2023-07-13T22:44:11;101391.19;;;18.58;96.32
43824;BME280;29470;53.550;9.926;2023-07-13T22:49:19;101387.50;;;18.72;95.27
43824;BME280;29470;53.550;9.926;2023-07-13T22:54:24;101387.59;;;18.93;93.77
43824;BME280;29470;53.550;9.926;2023-07-13T22:59:27;101371.41;;;19.02;93.01
43824;BME280;29470;53.550;9.926;2023-07-13T23:04:33;101371.53;;;19.05;92.65
43824;BME280;29470;53.550;9.926;2023-07-13T23:09:36;101377.53;;;18.83;93.92
43824;BME280;29470;53.550;9.926;2023-07-13T23:14:46;101384.50;;;18.45;96.07
43824;BME280;29470;53.550;9.926;2023-07-13T23:19:51;101401.22;;;18.29;96.36
43824;BME280;29470;53.550;9.926;2023-07-13T23:24:53;101398.34;;;18.24;96.72
43824;BME280;29470;53.550;9.926;2023-07-13T23:29:56;101394.53;;;18.35;96.19
43824;BME280;29470;53.550;9.926;2023-07-13T23:35:01;101396.50;;;18.21;95.37
43824;BME280;29470;53.550;9.926;2023-07-13T23:40:11;101402.63;;;18.22;97.17
43824;BME280;29470;53.550;9.926;2023-07-13T23:45:17;101394.91;;;18.25;97.21
43824;BME280;29470;53.550;9.926;2023-07-13T23:50:23;101386.13;;;18.43;95.73
43824;BME280;29470;53.550;9.926;2023-07-13T23:55:29;101400.09;;;18.23;97.70
